N88CD LROP-LRCL
Flight info
| Callsign | N88CD |
|---|---|
| Flight time | 0h 56m |
| Altitude | 23000 |
| Route | BUKEL DCT EDETA |
| Aircraft | SF50/L-VGD/C |
Departure
| Time | 2026-04-30 19:31 |
|---|---|
| Airport | Bucharest Henri Coandă International Airport (LROP) |
Arrival
| Time | 2026-04-30 20:27 |
|---|---|
| Airport | Avram Iancu Cluj International Airport (LRCL) |
| Time | Latitude | Longitude | Altitude | Speed | Heading |
|---|---|---|---|---|---|
| 2026-04-30 19:12 | 44.56892 | 26.08191 | 314 ft | 0 kts | 354° |
| 2026-04-30 19:27 | 44.56929 | 26.08191 | 314 ft | 8 kts | 25° |
| 2026-04-30 19:27 | 44.56976 | 26.08379 | 314 ft | 14 kts | 29° |
| 2026-04-30 19:28 | 44.57086 | 26.08374 | 314 ft | 18 kts | 354° |
| 2026-04-30 19:28 | 44.57241 | 26.08473 | 314 ft | 12 kts | 57° |
| 2026-04-30 19:29 | 44.57474 | 26.08467 | 314 ft | 22 kts | 355° |
| 2026-04-30 19:29 | 44.57531 | 26.08459 | 315 ft | 0 kts | 354° |
| 2026-04-30 19:30 | 44.57684 | 26.08619 | 317 ft | 45 kts | 82° |
| 2026-04-30 19:30 | 44.57825 | 26.10453 | 466 ft | 132 kts | 82° |
| 2026-04-30 19:31 | 44.58054 | 26.13490 | 1417 ft | 167 kts | 82° |
| 2026-04-30 19:31 | 44.58177 | 26.15152 | 1833 ft | 180 kts | 82° |
| 2026-04-30 19:31 | 44.58442 | 26.18765 | 2392 ft | 188 kts | 82° |
| 2026-04-30 19:32 | 44.58579 | 26.20587 | 2651 ft | 188 kts | 81° |
| 2026-04-30 19:32 | 44.58716 | 26.22409 | 2913 ft | 188 kts | 81° |
| 2026-04-30 19:32 | 44.58853 | 26.24239 | 3175 ft | 188 kts | 81° |
| 2026-04-30 19:32 | 44.58988 | 26.26071 | 3438 ft | 189 kts | 81° |
| 2026-04-30 19:33 | 44.59174 | 26.27900 | 3701 ft | 189 kts | 73° |
| 2026-04-30 19:33 | 44.59701 | 26.29570 | 3956 ft | 187 kts | 58° |
| 2026-04-30 19:33 | 44.60520 | 26.30956 | 4207 ft | 187 kts | 43° |
| 2026-04-30 19:33 | 44.61607 | 26.31996 | 4475 ft | 195 kts | 28° |
| 2026-04-30 19:34 | 44.62942 | 26.32583 | 4750 ft | 207 kts | 12° |
| 2026-04-30 19:34 | 44.64414 | 26.32575 | 5051 ft | 214 kts | 357° |
| 2026-04-30 19:34 | 44.67401 | 26.32139 | 5930 ft | 218 kts | 358° |
| 2026-04-30 19:35 | 44.68924 | 26.31923 | 6379 ft | 221 kts | 357° |
| 2026-04-30 19:35 | 44.70466 | 26.31699 | 6825 ft | 223 kts | 357° |
| 2026-04-30 19:35 | 44.71999 | 26.31476 | 7247 ft | 225 kts | 356° |
| 2026-04-30 19:35 | 44.73562 | 26.31251 | 7681 ft | 226 kts | 356° |
| 2026-04-30 19:36 | 44.75137 | 26.31021 | 8116 ft | 228 kts | 356° |
| 2026-04-30 19:36 | 44.76724 | 26.30790 | 8563 ft | 229 kts | 356° |
| 2026-04-30 19:36 | 44.79911 | 26.30324 | 9469 ft | 230 kts | 354° |
| 2026-04-30 19:37 | 44.81462 | 26.29757 | 9924 ft | 232 kts | 338° |
| 2026-04-30 19:37 | 44.82847 | 26.28592 | 10369 ft | 233 kts | 323° |
| 2026-04-30 19:37 | 44.83948 | 26.26945 | 10784 ft | 235 kts | 308° |
| 2026-04-30 19:37 | 44.84809 | 26.24989 | 11214 ft | 234 kts | 303° |
| 2026-04-30 19:38 | 44.85677 | 26.23042 | 11653 ft | 234 kts | 304° |
| 2026-04-30 19:38 | 44.86541 | 26.21106 | 12086 ft | 233 kts | 303° |
| 2026-04-30 19:38 | 44.87397 | 26.19164 | 12531 ft | 233 kts | 303° |
| 2026-04-30 19:38 | 44.88254 | 26.17223 | 12979 ft | 232 kts | 303° |
| 2026-04-30 19:39 | 44.89104 | 26.15291 | 13446 ft | 232 kts | 302° |
| 2026-04-30 19:39 | 44.89954 | 26.13363 | 13910 ft | 231 kts | 302° |
| 2026-04-30 19:39 | 44.90802 | 26.11438 | 14352 ft | 230 kts | 302° |
| 2026-04-30 19:39 | 44.91634 | 26.09546 | 14763 ft | 229 kts | 302° |
| 2026-04-30 19:40 | 44.92473 | 26.07638 | 15193 ft | 228 kts | 301° |
| 2026-04-30 19:40 | 44.93312 | 26.05728 | 15625 ft | 228 kts | 301° |
| 2026-04-30 19:40 | 44.94146 | 26.03829 | 16069 ft | 227 kts | 301° |
| 2026-04-30 19:40 | 44.94979 | 26.01925 | 16471 ft | 228 kts | 301° |
| 2026-04-30 19:41 | 44.95810 | 26.00030 | 16870 ft | 230 kts | 301° |
| 2026-04-30 19:41 | 44.96652 | 25.98104 | 17268 ft | 231 kts | 301° |
| 2026-04-30 19:41 | 44.97500 | 25.96169 | 17681 ft | 231 kts | 301° |
| 2026-04-30 19:41 | 44.98346 | 25.94231 | 18088 ft | 232 kts | 300° |
| 2026-04-30 19:42 | 44.99194 | 25.92293 | 18515 ft | 231 kts | 300° |
| 2026-04-30 19:42 | 45.00027 | 25.90383 | 18894 ft | 231 kts | 300° |
| 2026-04-30 19:42 | 45.00869 | 25.88452 | 19262 ft | 230 kts | 301° |
| 2026-04-30 19:42 | 45.01710 | 25.86526 | 19633 ft | 229 kts | 301° |
| 2026-04-30 19:43 | 45.02544 | 25.84612 | 20009 ft | 227 kts | 301° |
| 2026-04-30 19:43 | 45.03375 | 25.82709 | 20390 ft | 226 kts | 301° |
| 2026-04-30 19:43 | 45.04195 | 25.80825 | 20780 ft | 224 kts | 301° |
| 2026-04-30 19:44 | 45.05804 | 25.77129 | 21553 ft | 220 kts | 302° |
| 2026-04-30 19:44 | 45.06602 | 25.75291 | 21952 ft | 218 kts | 302° |
| 2026-04-30 19:44 | 45.07422 | 25.73415 | 22010 ft | 230 kts | 303° |
| 2026-04-30 19:44 | 45.08524 | 25.71705 | 22021 ft | 242 kts | 321° |
| 2026-04-30 19:45 | 45.09874 | 25.70208 | 22026 ft | 252 kts | 321° |
| 2026-04-30 19:45 | 45.11263 | 25.68613 | 22027 ft | 260 kts | 321° |
| 2026-04-30 19:45 | 45.12688 | 25.66971 | 22028 ft | 267 kts | 321° |
| 2026-04-30 19:45 | 45.14149 | 25.65300 | 22025 ft | 273 kts | 321° |
| 2026-04-30 19:46 | 45.15638 | 25.63601 | 22022 ft | 277 kts | 322° |
| 2026-04-30 19:46 | 45.17130 | 25.61892 | 22027 ft | 281 kts | 322° |
| 2026-04-30 19:46 | 45.18661 | 25.60136 | 22027 ft | 284 kts | 322° |
| 2026-04-30 19:46 | 45.20205 | 25.58364 | 22026 ft | 287 kts | 322° |
| 2026-04-30 19:47 | 45.21768 | 25.56573 | 22062 ft | 289 kts | 322° |
| 2026-04-30 19:47 | 45.22803 | 25.55383 | 22158 ft | 288 kts | 322° |
| 2026-04-30 19:47 | 45.24883 | 25.52991 | 22337 ft | 286 kts | 322° |
| 2026-04-30 19:47 | 45.26434 | 25.51209 | 22364 ft | 288 kts | 322° |
| 2026-04-30 19:48 | 45.27984 | 25.49424 | 22364 ft | 291 kts | 323° |
| 2026-04-30 19:48 | 45.29565 | 25.47604 | 22366 ft | 293 kts | 323° |
| 2026-04-30 19:48 | 45.31155 | 25.45772 | 22369 ft | 295 kts | 323° |
| 2026-04-30 19:48 | 45.32762 | 25.43919 | 22371 ft | 297 kts | 323° |
| 2026-04-30 19:49 | 45.34363 | 25.42072 | 22369 ft | 296 kts | 323° |
| 2026-04-30 19:49 | 45.37018 | 25.39005 | 22365 ft | 296 kts | 323° |
| 2026-04-30 19:49 | 45.38615 | 25.37158 | 22365 ft | 295 kts | 323° |
| 2026-04-30 19:50 | 45.40211 | 25.35312 | 22364 ft | 295 kts | 323° |
| 2026-04-30 19:50 | 45.41810 | 25.33459 | 22362 ft | 295 kts | 323° |
| 2026-04-30 19:50 | 45.43381 | 25.31639 | 22357 ft | 295 kts | 323° |
| 2026-04-30 19:50 | 45.44891 | 25.29888 | 22363 ft | 294 kts | 323° |
| 2026-04-30 19:51 | 45.46482 | 25.28042 | 22366 ft | 294 kts | 323° |
| 2026-04-30 19:51 | 45.48066 | 25.26202 | 22359 ft | 294 kts | 323° |
| 2026-04-30 19:51 | 45.49651 | 25.24360 | 22361 ft | 293 kts | 323° |
| 2026-04-30 19:51 | 45.51238 | 25.22513 | 22356 ft | 293 kts | 323° |
| 2026-04-30 19:52 | 45.52820 | 25.20670 | 22367 ft | 293 kts | 324° |
| 2026-04-30 19:52 | 45.54405 | 25.18912 | 22348 ft | 291 kts | 330° |
| 2026-04-30 19:52 | 45.56289 | 25.18011 | 22354 ft | 287 kts | 354° |
| 2026-04-30 19:52 | 45.58276 | 25.17974 | 22352 ft | 285 kts | 354° |
| 2026-04-30 19:53 | 45.60122 | 25.16970 | 22343 ft | 290 kts | 329° |
| 2026-04-30 19:53 | 45.61562 | 25.14921 | 22353 ft | 295 kts | 312° |
| 2026-04-30 19:53 | 45.62788 | 25.12608 | 22355 ft | 295 kts | 311° |
| 2026-04-30 19:53 | 45.64131 | 25.10403 | 22361 ft | 293 kts | 318° |
| 2026-04-30 19:54 | 45.65665 | 25.08487 | 22361 ft | 291 kts | 324° |
| 2026-04-30 19:54 | 45.67231 | 25.06658 | 22353 ft | 291 kts | 323° |
| 2026-04-30 19:54 | 45.68744 | 25.04716 | 22355 ft | 292 kts | 320° |
| 2026-04-30 19:54 | 45.70232 | 25.02743 | 22361 ft | 291 kts | 321° |
| 2026-04-30 19:55 | 45.71626 | 25.00613 | 22361 ft | 294 kts | 314° |
| 2026-04-30 19:55 | 45.72939 | 24.98367 | 22357 ft | 293 kts | 315° |
| 2026-04-30 19:55 | 45.74364 | 24.96346 | 22361 ft | 291 kts | 322° |
| 2026-04-30 19:55 | 45.75922 | 24.94504 | 22290 ft | 291 kts | 324° |
| 2026-04-30 19:56 | 45.77468 | 24.92612 | 22146 ft | 291 kts | 322° |
| 2026-04-30 19:56 | 45.78968 | 24.90644 | 21961 ft | 292 kts | 321° |
| 2026-04-30 19:56 | 45.80474 | 24.88688 | 21694 ft | 291 kts | 322° |
| 2026-04-30 19:56 | 45.81987 | 24.86762 | 21421 ft | 291 kts | 322° |
| 2026-04-30 19:57 | 45.83495 | 24.84840 | 21163 ft | 291 kts | 322° |
| 2026-04-30 19:57 | 45.85005 | 24.82895 | 20899 ft | 291 kts | 322° |
| 2026-04-30 19:57 | 45.86510 | 24.80957 | 20631 ft | 290 kts | 322° |
| 2026-04-30 19:57 | 45.88008 | 24.79033 | 20381 ft | 289 kts | 322° |
| 2026-04-30 19:58 | 45.89509 | 24.77102 | 20125 ft | 289 kts | 322° |
| 2026-04-30 19:58 | 45.91005 | 24.75177 | 19866 ft | 288 kts | 322° |
| 2026-04-30 19:58 | 45.92475 | 24.73281 | 19620 ft | 287 kts | 322° |
| 2026-04-30 19:58 | 45.93963 | 24.71364 | 19369 ft | 287 kts | 321° |
| 2026-04-30 19:59 | 45.95442 | 24.69453 | 19123 ft | 286 kts | 321° |
| 2026-04-30 19:59 | 45.96926 | 24.67536 | 18874 ft | 286 kts | 321° |
| 2026-04-30 19:59 | 45.99877 | 24.63722 | 18344 ft | 284 kts | 321° |
| 2026-04-30 20:00 | 46.01346 | 24.61817 | 18068 ft | 284 kts | 321° |
| 2026-04-30 20:00 | 46.02815 | 24.59916 | 17786 ft | 283 kts | 321° |
| 2026-04-30 20:00 | 46.04270 | 24.58030 | 17513 ft | 282 kts | 321° |
| 2026-04-30 20:00 | 46.05731 | 24.56134 | 17242 ft | 281 kts | 321° |
| 2026-04-30 20:01 | 46.08631 | 24.52370 | 16698 ft | 280 kts | 321° |
| 2026-04-30 20:01 | 46.10073 | 24.50496 | 16437 ft | 278 kts | 321° |
| 2026-04-30 20:01 | 46.11491 | 24.48653 | 16169 ft | 277 kts | 321° |
| 2026-04-30 20:02 | 46.14856 | 24.46510 | 15622 ft | 267 kts | 1° |
| 2026-04-30 20:02 | 46.16702 | 24.46667 | 15372 ft | 266 kts | 4° |
| 2026-04-30 20:03 | 46.20408 | 24.46525 | 14860 ft | 271 kts | 356° |
| 2026-04-30 20:03 | 46.22333 | 24.46292 | 14618 ft | 283 kts | 357° |
| 2026-04-30 20:03 | 46.24329 | 24.46128 | 14368 ft | 290 kts | 358° |
| 2026-04-30 20:03 | 46.26343 | 24.45980 | 14133 ft | 294 kts | 358° |
| 2026-04-30 20:04 | 46.28390 | 24.45801 | 13852 ft | 294 kts | 357° |
| 2026-04-30 20:04 | 46.30423 | 24.45580 | 13571 ft | 293 kts | 353° |
| 2026-04-30 20:04 | 46.32319 | 24.44519 | 13267 ft | 296 kts | 329° |
| 2026-04-30 20:05 | 46.34920 | 24.39863 | 12704 ft | 298 kts | 309° |
| 2026-04-30 20:05 | 46.36184 | 24.37491 | 12437 ft | 296 kts | 310° |
| 2026-04-30 20:05 | 46.38439 | 24.32541 | 12028 ft | 299 kts | 294° |
| 2026-04-30 20:06 | 46.38889 | 24.29609 | 12035 ft | 300 kts | 281° |
| 2026-04-30 20:06 | 46.39116 | 24.26601 | 12034 ft | 300 kts | 278° |
| 2026-04-30 20:06 | 46.39620 | 24.23721 | 12032 ft | 293 kts | 298° |
| 2026-04-30 20:06 | 46.40836 | 24.21402 | 12035 ft | 288 kts | 317° |
| 2026-04-30 20:07 | 46.42251 | 24.19392 | 12039 ft | 288 kts | 317° |
| 2026-04-30 20:07 | 46.43577 | 24.17196 | 12039 ft | 290 kts | 310° |
| 2026-04-30 20:07 | 46.45912 | 24.12388 | 11380 ft | 292 kts | 309° |
| 2026-04-30 20:08 | 46.47133 | 24.10056 | 11002 ft | 283 kts | 310° |
| 2026-04-30 20:08 | 46.48266 | 24.07900 | 10620 ft | 254 kts | 309° |
| 2026-04-30 20:08 | 46.49281 | 24.05922 | 10239 ft | 236 kts | 309° |
| 2026-04-30 20:08 | 46.50251 | 24.04033 | 9825 ft | 230 kts | 309° |
| 2026-04-30 20:09 | 46.51209 | 24.02174 | 9412 ft | 229 kts | 309° |
| 2026-04-30 20:09 | 46.52153 | 24.00342 | 9057 ft | 228 kts | 309° |
| 2026-04-30 20:09 | 46.54037 | 23.96676 | 9054 ft | 228 kts | 309° |
| 2026-04-30 20:10 | 46.55948 | 23.92950 | 9043 ft | 233 kts | 309° |
| 2026-04-30 20:10 | 46.56932 | 23.91033 | 9041 ft | 244 kts | 309° |
| 2026-04-30 20:10 | 46.57985 | 23.88978 | 9045 ft | 261 kts | 309° |
| 2026-04-30 20:11 | 46.60216 | 23.84606 | 9052 ft | 273 kts | 308° |
| 2026-04-30 20:11 | 46.61349 | 23.82388 | 9052 ft | 273 kts | 308° |
| 2026-04-30 20:11 | 46.62483 | 23.80169 | 8945 ft | 275 kts | 308° |
| 2026-04-30 20:12 | 46.64750 | 23.75715 | 8412 ft | 272 kts | 308° |
| 2026-04-30 20:12 | 46.65867 | 23.73527 | 8149 ft | 272 kts | 308° |
| 2026-04-30 20:12 | 46.66875 | 23.71171 | 8043 ft | 271 kts | 298° |
| 2026-04-30 20:13 | 46.67612 | 23.68694 | 8040 ft | 272 kts | 294° |
| 2026-04-30 20:13 | 46.68519 | 23.66278 | 8032 ft | 271 kts | 308° |
| 2026-04-30 20:13 | 46.69730 | 23.64171 | 8032 ft | 270 kts | 313° |
| 2026-04-30 20:13 | 46.70976 | 23.62113 | 8029 ft | 270 kts | 312° |
| 2026-04-30 20:14 | 46.72132 | 23.59951 | 8034 ft | 271 kts | 308° |
| 2026-04-30 20:14 | 46.73247 | 23.57726 | 8034 ft | 271 kts | 308° |
| 2026-04-30 20:14 | 46.74384 | 23.55542 | 8033 ft | 271 kts | 309° |
| 2026-04-30 20:14 | 46.75535 | 23.53369 | 8033 ft | 270 kts | 309° |
| 2026-04-30 20:15 | 46.76666 | 23.51209 | 8032 ft | 271 kts | 309° |
| 2026-04-30 20:15 | 46.77806 | 23.49019 | 8031 ft | 271 kts | 309° |
| 2026-04-30 20:15 | 46.78946 | 23.46834 | 8030 ft | 271 kts | 309° |
| 2026-04-30 20:15 | 46.80086 | 23.44648 | 8033 ft | 270 kts | 309° |
| 2026-04-30 20:16 | 46.81228 | 23.42458 | 8032 ft | 271 kts | 309° |
| 2026-04-30 20:16 | 46.82371 | 23.40258 | 8033 ft | 271 kts | 309° |
| 2026-04-30 20:16 | 46.83510 | 23.38070 | 8032 ft | 271 kts | 309° |
| 2026-04-30 20:16 | 46.84652 | 23.35877 | 8033 ft | 269 kts | 309° |
| 2026-04-30 20:17 | 46.85744 | 23.33768 | 8022 ft | 249 kts | 309° |
| 2026-04-30 20:17 | 46.86734 | 23.31855 | 8011 ft | 229 kts | 309° |
| 2026-04-30 20:17 | 46.87666 | 23.30059 | 8005 ft | 218 kts | 309° |
| 2026-04-30 20:17 | 46.88580 | 23.28304 | 8012 ft | 215 kts | 309° |
| 2026-04-30 20:18 | 46.89486 | 23.26559 | 8006 ft | 216 kts | 309° |
| 2026-04-30 20:18 | 46.90357 | 23.24771 | 8001 ft | 218 kts | 300° |
| 2026-04-30 20:18 | 46.90655 | 23.22595 | 8008 ft | 222 kts | 270° |
| 2026-04-30 20:18 | 46.90179 | 23.20450 | 8004 ft | 226 kts | 237° |
| 2026-04-30 20:19 | 46.88986 | 23.19068 | 8003 ft | 217 kts | 202° |
| 2026-04-30 20:19 | 46.88024 | 23.18786 | 8007 ft | 211 kts | 181° |
| 2026-04-30 20:19 | 46.86158 | 23.19315 | 8013 ft | 206 kts | 164° |
| 2026-04-30 20:19 | 46.84766 | 23.19812 | 8013 ft | 206 kts | 166° |
| 2026-04-30 20:20 | 46.83371 | 23.20289 | 8011 ft | 206 kts | 166° |
| 2026-04-30 20:20 | 46.81950 | 23.20782 | 8013 ft | 207 kts | 165° |
| 2026-04-30 20:20 | 46.80523 | 23.21279 | 8015 ft | 216 kts | 165° |
| 2026-04-30 20:20 | 46.79024 | 23.21802 | 8022 ft | 226 kts | 165° |
| 2026-04-30 20:21 | 46.77498 | 23.22428 | 8020 ft | 228 kts | 154° |
| 2026-04-30 20:21 | 46.76330 | 23.23896 | 8006 ft | 225 kts | 121° |
| 2026-04-30 20:21 | 46.75917 | 23.26027 | 8012 ft | 218 kts | 86° |
| 2026-04-30 20:21 | 46.76152 | 23.28202 | 8013 ft | 217 kts | 77° |
| 2026-04-30 20:22 | 46.76285 | 23.30403 | 7930 ft | 221 kts | 89° |
| 2026-04-30 20:22 | 46.76139 | 23.32642 | 7668 ft | 221 kts | 95° |
| 2026-04-30 20:22 | 46.75952 | 23.34852 | 7414 ft | 218 kts | 94° |
| 2026-04-30 20:22 | 46.75819 | 23.37037 | 7159 ft | 216 kts | 92° |
| 2026-04-30 20:23 | 46.75696 | 23.39178 | 7021 ft | 209 kts | 93° |
| 2026-04-30 20:23 | 46.75569 | 23.41240 | 7012 ft | 198 kts | 93° |
| 2026-04-30 20:23 | 46.75443 | 23.43249 | 6458 ft | 199 kts | 93° |
| 2026-04-30 20:23 | 46.75324 | 23.45248 | 5802 ft | 195 kts | 92° |
| 2026-04-30 20:24 | 46.75513 | 23.47191 | 5097 ft | 195 kts | 74° |
| 2026-04-30 20:24 | 46.75888 | 23.49023 | 4974 ft | 184 kts | 73° |
| 2026-04-30 20:24 | 46.76235 | 23.50844 | 4616 ft | 190 kts | 75° |
| 2026-04-30 20:24 | 46.76536 | 23.52818 | 4235 ft | 205 kts | 81° |
| 2026-04-30 20:25 | 46.76900 | 23.57144 | 3483 ft | 223 kts | 85° |
| 2026-04-30 20:25 | 46.77064 | 23.59278 | 2761 ft | 204 kts | 85° |
| 2026-04-30 20:26 | 46.77511 | 23.62975 | 1666 ft | 151 kts | 74° |
| 2026-04-30 20:26 | 46.78066 | 23.65393 | 1279 ft | 114 kts | 70° |
| 2026-04-30 20:26 | 46.78323 | 23.66516 | 1156 ft | 119 kts | 70° |
| 2026-04-30 20:27 | 46.78785 | 23.68543 | 1037 ft | 72 kts | 71° |
| 2026-04-30 20:27 | 46.78881 | 23.69169 | 1037 ft | 13 kts | 139° |
| 2026-04-30 20:28 | 46.78792 | 23.69219 | 1037 ft | 9 kts | 163° |